sensor_id;sensor_type;location;lat;lon;timestamp;pressure;altitude;pressure_sealevel;temperature;humidity
74881;BME280;63427;49.654;6.596;2022-11-21T00:00:04;98871.66;;;9.36;46.81
74881;BME280;63427;49.654;6.596;2022-11-21T00:02:28;98869.76;;;9.56;46.40
74881;BME280;63427;49.654;6.596;2022-11-21T00:04:54;98870.13;;;9.91;45.64
74881;BME280;63427;49.654;6.596;2022-11-21T00:07:19;98868.21;;;9.61;45.89
74881;BME280;63427;49.654;6.596;2022-11-21T00:09:45;98869.39;;;9.51;45.99
74881;BME280;63427;49.654;6.596;2022-11-21T00:12:10;98865.15;;;9.14;46.95
74881;BME280;63427;49.654;6.596;2022-11-21T00:14:35;98863.88;;;9.56;45.80
74881;BME280;63427;49.654;6.596;2022-11-21T00:17:00;98858.31;;;9.39;45.61
74881;BME280;63427;49.654;6.596;2022-11-21T00:19:25;98859.38;;;9.53;45.62
74881;BME280;63427;49.654;6.596;2022-11-21T00:21:51;98853.98;;;9.39;45.67
74881;BME280;63427;49.654;6.596;2022-11-21T00:24:17;98849.86;;;9.81;44.92
74881;BME280;63427;49.654;6.596;2022-11-21T00:26:42;98848.89;;;9.44;44.95
74881;BME280;63427;49.654;6.596;2022-11-21T00:29:08;98843.86;;;9.50;44.73
74881;BME280;63427;49.654;6.596;2022-11-21T00:31:33;98841.27;;;9.39;45.39
74881;BME280;63427;49.654;6.596;2022-11-21T00:33:59;98839.56;;;9.44;45.32
74881;BME280;63427;49.654;6.596;2022-11-21T00:36:25;98839.35;;;9.77;44.60
74881;BME280;63427;49.654;6.596;2022-11-21T00:38:50;98833.94;;;9.61;44.67
74881;BME280;63427;49.654;6.596;2022-11-21T00:41:16;98833.32;;;8.94;45.15
74881;BME280;63427;49.654;6.596;2022-11-21T00:43:41;98831.59;;;9.24;45.02
74881;BME280;63427;49.654;6.596;2022-11-21T00:46:07;98830.07;;;9.51;45.24
74881;BME280;63427;49.654;6.596;2022-11-21T00:48:33;98826.28;;;9.35;46.17
74881;BME280;63427;49.654;6.596;2022-11-21T00:50:59;98830.13;;;9.22;46.02
74881;BME280;63427;49.654;6.596;2022-11-21T00:53:24;98831.53;;;9.63;45.89
74881;BME280;63427;49.654;6.596;2022-11-21T00:55:50;98831.12;;;9.23;45.95
74881;BME280;63427;49.654;6.596;2022-11-21T00:58:15;98830.15;;;9.38;46.21
74881;BME280;63427;49.654;6.596;2022-11-21T01:00:41;98827.37;;;8.85;46.95
74881;BME280;63427;49.654;6.596;2022-11-21T01:03:07;98810.83;;;8.96;46.68
74881;BME280;63427;49.654;6.596;2022-11-21T01:05:32;98816.02;;;9.18;46.60
74881;BME280;63427;49.654;6.596;2022-11-21T01:07:58;98813.40;;;9.12;46.14
74881;BME280;63427;49.654;6.596;2022-11-21T01:10:24;98809.75;;;8.56;46.99
74881;BME280;63427;49.654;6.596;2022-11-21T01:12:49;98810.25;;;9.01;46.44
74881;BME280;63427;49.654;6.596;2022-11-21T01:15:15;98809.89;;;9.51;45.81
74881;BME280;63427;49.654;6.596;2022-11-21T01:17:41;98809.74;;;9.16;46.28
74881;BME280;63427;49.654;6.596;2022-11-21T01:20:07;98808.15;;;9.23;45.69
74881;BME280;63427;49.654;6.596;2022-11-21T01:22:32;98812.79;;;9.27;45.77
74881;BME280;63427;49.654;6.596;2022-11-21T01:24:58;98815.97;;;9.15;45.97
74881;BME280;63427;49.654;6.596;2022-11-21T01:27:23;98820.77;;;9.36;45.78
74881;BME280;63427;49.654;6.596;2022-11-21T01:29:49;98818.46;;;9.53;45.72
74881;BME280;63427;49.654;6.596;2022-11-21T01:32:15;98819.01;;;9.07;46.14
74881;BME280;63427;49.654;6.596;2022-11-21T01:34:40;98813.55;;;9.01;45.86
74881;BME280;63427;49.654;6.596;2022-11-21T01:37:06;98808.53;;;9.48;45.10
74881;BME280;63427;49.654;6.596;2022-11-21T01:39:31;98810.55;;;9.43;45.56
74881;BME280;63427;49.654;6.596;2022-11-21T01:41:57;98811.57;;;9.24;45.01
74881;BME280;63427;49.654;6.596;2022-11-21T01:44:25;98810.52;;;8.99;45.48
74881;BME280;63427;49.654;6.596;2022-11-21T01:46:49;98810.85;;;9.85;44.62
74881;BME280;63427;49.654;6.596;2022-11-21T01:49:16;98811.19;;;8.96;46.22
74881;BME280;63427;49.654;6.596;2022-11-21T01:51:42;98812.27;;;9.43;44.81
74881;BME280;63427;49.654;6.596;2022-11-21T01:54:09;98814.99;;;9.46;44.60
74881;BME280;63427;49.654;6.596;2022-11-21T01:56:34;98810.50;;;9.35;44.52
74881;BME280;63427;49.654;6.596;2022-11-21T01:58:59;98809.78;;;9.44;44.59
74881;BME280;63427;49.654;6.596;2022-11-21T02:01:22;98811.37;;;9.74;44.45
74881;BME280;63427;49.654;6.596;2022-11-21T02:03:48;98805.00;;;9.40;43.81
74881;BME280;63427;49.654;6.596;2022-11-21T02:06:13;98801.75;;;9.78;43.43
74881;BME280;63427;49.654;6.596;2022-11-21T02:08:40;98802.01;;;9.96;43.22
74881;BME280;63427;49.654;6.596;2022-11-21T02:11:11;98804.82;;;9.33;43.66
74881;BME280;63427;49.654;6.596;2022-11-21T02:13:31;98802.99;;;10.06;43.50
74881;BME280;63427;49.654;6.596;2022-11-21T02:15:56;98802.44;;;9.69;43.73
74881;BME280;63427;49.654;6.596;2022-11-21T02:18:22;98805.83;;;9.72;44.17
74881;BME280;63427;49.654;6.596;2022-11-21T02:20:52;98805.82;;;9.51;43.97
74881;BME280;63427;49.654;6.596;2022-11-21T02:23:18;98803.14;;;9.74;43.78
74881;BME280;63427;49.654;6.596;2022-11-21T02:25:40;98802.04;;;9.37;44.31
74881;BME280;63427;49.654;6.596;2022-11-21T02:28:07;98801.65;;;9.09;44.74
74881;BME280;63427;49.654;6.596;2022-11-21T02:30:32;98791.48;;;9.92;43.81
74881;BME280;63427;49.654;6.596;2022-11-21T02:32:56;98792.09;;;9.77;43.48
74881;BME280;63427;49.654;6.596;2022-11-21T02:35:21;98798.38;;;10.04;43.42
74881;BME280;63427;49.654;6.596;2022-11-21T02:37:52;98805.51;;;10.04;43.34
74881;BME280;63427;49.654;6.596;2022-11-21T02:40:17;98805.88;;;9.84;43.44
74881;BME280;63427;49.654;6.596;2022-11-21T02:42:42;98800.08;;;9.41;43.96
74881;BME280;63427;49.654;6.596;2022-11-21T02:45:11;98798.76;;;9.57;43.65
74881;BME280;63427;49.654;6.596;2022-11-21T02:47:30;98801.53;;;9.58;44.62
74881;BME280;63427;49.654;6.596;2022-11-21T02:49:59;98795.80;;;9.63;44.28
74881;BME280;63427;49.654;6.596;2022-11-21T02:52:21;98798.36;;;9.62;44.07
74881;BME280;63427;49.654;6.596;2022-11-21T02:54:46;98795.29;;;9.59;44.48
74881;BME280;63427;49.654;6.596;2022-11-21T02:57:12;98792.94;;;9.19;45.21
74881;BME280;63427;49.654;6.596;2022-11-21T02:59:37;98788.38;;;9.47;44.81
74881;BME280;63427;49.654;6.596;2022-11-21T03:02:03;98790.66;;;9.62;44.34
74881;BME280;63427;49.654;6.596;2022-11-21T03:04:29;98789.70;;;9.53;44.35
74881;BME280;63427;49.654;6.596;2022-11-21T03:06:54;98787.73;;;9.05;44.93
74881;BME280;63427;49.654;6.596;2022-11-21T03:09:20;98785.61;;;9.28;44.51
74881;BME280;63427;49.654;6.596;2022-11-21T03:11:46;98783.21;;;8.93;44.67
74881;BME280;63427;49.654;6.596;2022-11-21T03:14:11;98784.43;;;9.33;43.90
74881;BME280;63427;49.654;6.596;2022-11-21T03:16:37;98782.51;;;9.57;43.90
74881;BME280;63427;49.654;6.596;2022-11-21T03:19:03;98787.13;;;9.49;44.62
74881;BME280;63427;49.654;6.596;2022-11-21T03:21:28;98783.91;;;9.29;44.76
74881;BME280;63427;49.654;6.596;2022-11-21T03:23:54;98781.33;;;9.14;44.58
74881;BME280;63427;49.654;6.596;2022-11-21T03:26:19;98783.16;;;9.22;45.00
74881;BME280;63427;49.654;6.596;2022-11-21T03:28:45;98786.36;;;8.94;44.99
74881;BME280;63427;49.654;6.596;2022-11-21T03:31:11;98786.02;;;9.03;45.63
74881;BME280;63427;49.654;6.596;2022-11-21T03:33:37;98784.53;;;9.26;45.14
74881;BME280;63427;49.654;6.596;2022-11-21T03:36:02;98784.80;;;9.20;44.94
74881;BME280;63427;49.654;6.596;2022-11-21T03:38:27;98786.41;;;9.11;44.58
74881;BME280;63427;49.654;6.596;2022-11-21T03:40:53;98789.21;;;9.03;44.85
74881;BME280;63427;49.654;6.596;2022-11-21T03:43:18;98790.14;;;9.36;44.93
74881;BME280;63427;49.654;6.596;2022-11-21T03:45:45;98788.83;;;9.38;44.70
74881;BME280;63427;49.654;6.596;2022-11-21T03:48:10;98788.08;;;9.08;44.84
74881;BME280;63427;49.654;6.596;2022-11-21T03:50:35;98794.94;;;9.41;44.51
74881;BME280;63427;49.654;6.596;2022-11-21T03:53:01;98794.18;;;9.30;44.41
74881;BME280;63427;49.654;6.596;2022-11-21T03:55:27;98790.48;;;9.18;44.37
74881;BME280;63427;49.654;6.596;2022-11-21T03:57:52;98788.20;;;9.37;44.34
74881;BME280;63427;49.654;6.596;2022-11-21T04:00:18;98789.62;;;9.72;44.11
74881;BME280;63427;49.654;6.596;2022-11-21T04:02:44;98783.52;;;9.58;43.95
74881;BME280;63427;49.654;6.596;2022-11-21T04:05:09;98784.95;;;9.06;44.35
74881;BME280;63427;49.654;6.596;2022-11-21T04:07:35;98789.90;;;9.27;44.28
74881;BME280;63427;49.654;6.596;2022-11-21T04:10:00;98786.83;;;9.10;44.63
74881;BME280;63427;49.654;6.596;2022-11-21T04:12:26;98791.83;;;8.84;45.62
74881;BME280;63427;49.654;6.596;2022-11-21T04:14:52;98794.06;;;8.48;45.73
74881;BME280;63427;49.654;6.596;2022-11-21T04:17:17;98794.74;;;9.19;45.07
74881;BME280;63427;49.654;6.596;2022-11-21T04:19:43;98794.17;;;9.10;44.34
74881;BME280;63427;49.654;6.596;2022-11-21T04:22:08;98796.98;;;9.40;44.38
74881;BME280;63427;49.654;6.596;2022-11-21T04:24:33;98803.03;;;9.33;44.54
74881;BME280;63427;49.654;6.596;2022-11-21T04:26:59;98796.87;;;9.45;43.98
74881;BME280;63427;49.654;6.596;2022-11-21T04:29:25;98801.70;;;9.49;43.56
74881;BME280;63427;49.654;6.596;2022-11-21T04:31:50;98797.42;;;8.86;44.44
74881;BME280;63427;49.654;6.596;2022-11-21T04:34:16;98799.07;;;8.91;44.51
74881;BME280;63427;49.654;6.596;2022-11-21T04:36:41;98799.21;;;9.11;44.78
74881;BME280;63427;49.654;6.596;2022-11-21T04:39:07;98800.91;;;9.00;44.28
74881;BME280;63427;49.654;6.596;2022-11-21T04:41:33;98799.27;;;9.46;43.82
74881;BME280;63427;49.654;6.596;2022-11-21T04:43:59;98806.27;;;9.37;43.76
74881;BME280;63427;49.654;6.596;2022-11-21T04:46:24;98806.71;;;9.11;43.57
74881;BME280;63427;49.654;6.596;2022-11-21T04:48:50;98813.57;;;9.16;43.80
74881;BME280;63427;49.654;6.596;2022-11-21T04:51:15;98816.55;;;9.19;43.90
74881;BME280;63427;49.654;6.596;2022-11-21T04:53:41;98816.41;;;9.35;43.52
74881;BME280;63427;49.654;6.596;2022-11-21T04:56:07;98811.71;;;9.08;43.39
74881;BME280;63427;49.654;6.596;2022-11-21T04:58:33;98808.08;;;9.48;43.36
74881;BME280;63427;49.654;6.596;2022-11-21T05:01:04;98809.54;;;9.12;42.91
74881;BME280;63427;49.654;6.596;2022-11-21T05:03:25;98809.13;;;9.16;43.23
74881;BME280;63427;49.654;6.596;2022-11-21T05:05:50;98809.23;;;9.04;43.07
74881;BME280;63427;49.654;6.596;2022-11-21T05:08:15;98806.70;;;9.08;42.97
74881;BME280;63427;49.654;6.596;2022-11-21T05:10:42;98807.27;;;9.09;42.71
74881;BME280;63427;49.654;6.596;2022-11-21T05:13:08;98808.31;;;8.88;42.77
74881;BME280;63427;49.654;6.596;2022-11-21T05:15:32;98803.99;;;8.77;42.96
74881;BME280;63427;49.654;6.596;2022-11-21T05:17:58;98799.45;;;8.68;42.45
74881;BME280;63427;49.654;6.596;2022-11-21T05:20:24;98799.78;;;9.27;42.08
74881;BME280;63427;49.654;6.596;2022-11-21T05:22:50;98799.86;;;9.13;42.16
74881;BME280;63427;49.654;6.596;2022-11-21T05:25:15;98802.15;;;9.16;41.77
74881;BME280;63427;49.654;6.596;2022-11-21T05:27:41;98797.39;;;9.26;41.76
74881;BME280;63427;49.654;6.596;2022-11-21T05:30:07;98798.55;;;8.93;41.95
74881;BME280;63427;49.654;6.596;2022-11-21T05:32:32;98793.80;;;9.34;41.76
74881;BME280;63427;49.654;6.596;2022-11-21T05:34:57;98799.83;;;9.22;41.69
74881;BME280;63427;49.654;6.596;2022-11-21T05:37:24;98795.30;;;8.98;41.61
74881;BME280;63427;49.654;6.596;2022-11-21T05:39:49;98790.12;;;9.29;41.46
74881;BME280;63427;49.654;6.596;2022-11-21T05:42:15;98780.37;;;9.16;41.27
74881;BME280;63427;49.654;6.596;2022-11-21T05:44:40;98784.47;;;9.18;41.01
74881;BME280;63427;49.654;6.596;2022-11-21T05:47:06;98786.34;;;9.00;41.11
74881;BME280;63427;49.654;6.596;2022-11-21T05:49:32;98788.43;;;8.89;41.39
74881;BME280;63427;49.654;6.596;2022-11-21T05:51:57;98788.34;;;8.94;41.22
74881;BME280;63427;49.654;6.596;2022-11-21T05:54:23;98782.18;;;8.63;41.46
74881;BME280;63427;49.654;6.596;2022-11-21T05:56:49;98776.50;;;8.82;41.26
74881;BME280;63427;49.654;6.596;2022-11-21T05:59:14;98778.03;;;8.75;42.06
74881;BME280;63427;49.654;6.596;2022-11-21T06:01:40;98775.15;;;9.07;41.51
74881;BME280;63427;49.654;6.596;2022-11-21T06:04:06;98775.97;;;8.96;41.46
74881;BME280;63427;49.654;6.596;2022-11-21T06:06:31;98775.28;;;8.50;41.50
74881;BME280;63427;49.654;6.596;2022-11-21T06:08:57;98780.53;;;8.77;41.44
74881;BME280;63427;49.654;6.596;2022-11-21T06:11:22;98781.98;;;8.49;41.53
74881;BME280;63427;49.654;6.596;2022-11-21T06:13:48;98782.61;;;8.97;41.38
74881;BME280;63427;49.654;6.596;2022-11-21T06:16:15;98782.20;;;8.73;41.35
74881;BME280;63427;49.654;6.596;2022-11-21T06:18:41;98782.69;;;8.78;41.69
74881;BME280;63427;49.654;6.596;2022-11-21T06:21:06;98785.65;;;8.47;41.92
74881;BME280;63427;49.654;6.596;2022-11-21T06:23:31;98786.67;;;8.67;41.93
74881;BME280;63427;49.654;6.596;2022-11-21T06:25:57;98787.02;;;8.70;41.75
74881;BME280;63427;49.654;6.596;2022-11-21T06:28:22;98789.23;;;8.46;41.78
74881;BME280;63427;49.654;6.596;2022-11-21T06:30:48;98789.58;;;8.42;42.31
74881;BME280;63427;49.654;6.596;2022-11-21T06:33:14;98781.81;;;8.51;42.05
74881;BME280;63427;49.654;6.596;2022-11-21T06:35:39;98782.40;;;8.08;42.79
74881;BME280;63427;49.654;6.596;2022-11-21T06:38:05;98776.40;;;8.48;42.05
74881;BME280;63427;49.654;6.596;2022-11-21T06:40:31;98774.59;;;8.22;42.31
74881;BME280;63427;49.654;6.596;2022-11-21T06:42:56;98765.64;;;8.81;42.15
74881;BME280;63427;49.654;6.596;2022-11-21T06:45:22;98764.36;;;8.31;42.20
74881;BME280;63427;49.654;6.596;2022-11-21T06:47:48;98768.87;;;8.22;42.22
74881;BME280;63427;49.654;6.596;2022-11-21T06:50:14;98774.01;;;8.17;42.63
74881;BME280;63427;49.654;6.596;2022-11-21T06:52:39;98773.26;;;8.04;42.76
74881;BME280;63427;49.654;6.596;2022-11-21T06:55:05;98777.18;;;7.77;42.99
74881;BME280;63427;49.654;6.596;2022-11-21T06:57:31;98777.42;;;7.90;42.79
74881;BME280;63427;49.654;6.596;2022-11-21T06:59:56;98777.33;;;8.04;42.95
74881;BME280;63427;49.654;6.596;2022-11-21T07:02:22;98783.72;;;8.04;42.91
74881;BME280;63427;49.654;6.596;2022-11-21T07:04:48;98780.81;;;8.34;42.76
74881;BME280;63427;49.654;6.596;2022-11-21T07:07:14;98778.09;;;7.96;42.82
74881;BME280;63427;49.654;6.596;2022-11-21T07:09:40;98777.67;;;7.68;42.97
74881;BME280;63427;49.654;6.596;2022-11-21T07:12:05;98782.15;;;7.51;43.43
74881;BME280;63427;49.654;6.596;2022-11-21T07:14:31;98786.94;;;7.45;44.10
74881;BME280;63427;49.654;6.596;2022-11-21T07:16:56;98779.75;;;7.46;44.02
74881;BME280;63427;49.654;6.596;2022-11-21T07:19:23;98781.26;;;7.62;44.27
74881;BME280;63427;49.654;6.596;2022-11-21T07:21:48;98780.19;;;7.82;43.95
74881;BME280;63427;49.654;6.596;2022-11-21T07:24:14;98769.54;;;8.05;43.55
74881;BME280;63427;49.654;6.596;2022-11-21T07:26:40;98769.60;;;7.83;43.87
74881;BME280;63427;49.654;6.596;2022-11-21T07:29:05;98768.81;;;7.92;43.90
74881;BME280;63427;49.654;6.596;2022-11-21T07:31:31;98766.33;;;7.86;44.12
74881;BME280;63427;49.654;6.596;2022-11-21T07:33:57;98767.11;;;7.75;43.96
74881;BME280;63427;49.654;6.596;2022-11-21T07:36:22;98762.15;;;7.14;45.00
74881;BME280;63427;49.654;6.596;2022-11-21T07:38:48;98759.44;;;7.76;44.67
74881;BME280;63427;49.654;6.596;2022-11-21T07:41:14;98757.84;;;7.71;44.75
74881;BME280;63427;49.654;6.596;2022-11-21T07:43:39;98751.93;;;7.70;44.46
74881;BME280;63427;49.654;6.596;2022-11-21T07:46:05;98754.46;;;7.90;44.17
74881;BME280;63427;49.654;6.596;2022-11-21T07:48:31;98747.92;;;7.54;44.53
74881;BME280;63427;49.654;6.596;2022-11-21T07:50:57;98745.16;;;7.65;44.37
74881;BME280;63427;49.654;6.596;2022-11-21T07:53:23;98741.24;;;8.27;44.40
74881;BME280;63427;49.654;6.596;2022-11-21T07:55:49;98745.93;;;8.11;44.61
74881;BME280;63427;49.654;6.596;2022-11-21T07:58:15;98740.35;;;8.04;44.24
74881;BME280;63427;49.654;6.596;2022-11-21T08:00:40;98735.10;;;8.35;43.84
74881;BME280;63427;49.654;6.596;2022-11-21T08:03:06;98727.46;;;8.14;44.28
74881;BME280;63427;49.654;6.596;2022-11-21T08:05:35;98726.76;;;8.37;43.88
74881;BME280;63427;49.654;6.596;2022-11-21T08:07:57;98726.74;;;8.47;43.76
74881;BME280;63427;49.654;6.596;2022-11-21T08:10:23;98731.75;;;8.48;43.65
74881;BME280;63427;49.654;6.596;2022-11-21T08:12:48;98728.06;;;8.54;43.55
74881;BME280;63427;49.654;6.596;2022-11-21T08:15:14;98729.69;;;8.62;43.45
74881;BME280;63427;49.654;6.596;2022-11-21T08:17:40;98728.92;;;8.72;43.32
74881;BME280;63427;49.654;6.596;2022-11-21T08:20:07;98727.06;;;8.70;43.44
74881;BME280;63427;49.654;6.596;2022-11-21T08:22:31;98727.84;;;9.03;43.02
74881;BME280;63427;49.654;6.596;2022-11-21T08:24:57;98729.16;;;8.63;43.19
74881;BME280;63427;49.654;6.596;2022-11-21T08:27:23;98731.84;;;8.71;43.34
74881;BME280;63427;49.654;6.596;2022-11-21T08:29:49;98734.89;;;8.95;42.99
74881;BME280;63427;49.654;6.596;2022-11-21T08:32:15;98734.92;;;9.13;43.14
74881;BME280;63427;49.654;6.596;2022-11-21T08:34:40;98735.00;;;8.91;43.40
74881;BME280;63427;49.654;6.596;2022-11-21T08:37:11;98731.36;;;9.26;43.15
74881;BME280;63427;49.654;6.596;2022-11-21T08:39:31;98725.08;;;8.95;43.00
74881;BME280;63427;49.654;6.596;2022-11-21T08:41:57;98717.75;;;9.23;43.31
74881;BME280;63427;49.654;6.596;2022-11-21T08:44:22;98712.13;;;9.35;43.45
74881;BME280;63427;49.654;6.596;2022-11-21T08:46:48;98705.82;;;9.51;43.01
74881;BME280;63427;49.654;6.596;2022-11-21T08:49:13;98699.20;;;9.48;42.52
74881;BME280;63427;49.654;6.596;2022-11-21T08:51:39;98693.27;;;9.50;43.16
74881;BME280;63427;49.654;6.596;2022-11-21T08:54:05;98687.13;;;9.64;42.59
74881;BME280;63427;49.654;6.596;2022-11-21T08:56:30;98677.47;;;9.97;41.96
74881;BME280;63427;49.654;6.596;2022-11-21T08:58:56;98670.56;;;9.94;41.85
74881;BME280;63427;49.654;6.596;2022-11-21T09:01:22;98670.24;;;9.93;41.86
74881;BME280;63427;49.654;6.596;2022-11-21T09:03:47;98668.72;;;10.22;41.63
74881;BME280;63427;49.654;6.596;2022-11-21T09:06:12;98663.58;;;10.54;41.15
74881;BME280;63427;49.654;6.596;2022-11-21T09:08:38;98663.80;;;10.40;40.76
74881;BME280;63427;49.654;6.596;2022-11-21T09:11:04;98662.74;;;9.98;40.73
74881;BME280;63427;49.654;6.596;2022-11-21T09:13:29;98655.81;;;10.78;40.88
74881;BME280;63427;49.654;6.596;2022-11-21T09:15:57;98652.60;;;10.68;40.90
74881;BME280;63427;49.654;6.596;2022-11-21T09:18:21;98655.69;;;10.94;40.51
74881;BME280;63427;49.654;6.596;2022-11-21T09:20:46;98655.68;;;10.87;40.33
74881;BME280;63427;49.654;6.596;2022-11-21T09:23:14;98656.30;;;10.76;39.95
74881;BME280;63427;49.654;6.596;2022-11-21T09:25:37;98652.67;;;10.85;40.24
74881;BME280;63427;49.654;6.596;2022-11-21T09:28:04;98644.42;;;11.31;40.34
74881;BME280;63427;49.654;6.596;2022-11-21T09:30:28;98641.96;;;11.23;39.96
74881;BME280;63427;49.654;6.596;2022-11-21T09:32:58;98638.16;;;11.70;40.36
74881;BME280;63427;49.654;6.596;2022-11-21T09:35:19;98638.90;;;11.33;40.23
74881;BME280;63427;49.654;6.596;2022-11-21T09:37:45;98637.68;;;10.16;40.89
74881;BME280;63427;49.654;6.596;2022-11-21T09:40:13;98636.29;;;11.22;40.36
74881;BME280;63427;49.654;6.596;2022-11-21T09:42:50;98633.67;;;11.17;40.88
74881;BME280;63427;49.654;6.596;2022-11-21T09:45:05;98638.78;;;10.88;40.43
74881;BME280;63427;49.654;6.596;2022-11-21T09:47:29;98636.65;;;11.23;40.48
74881;BME280;63427;49.654;6.596;2022-11-21T09:49:59;98632.93;;;11.69;40.10
74881;BME280;63427;49.654;6.596;2022-11-21T09:52:20;98631.83;;;11.79;39.60
74881;BME280;63427;49.654;6.596;2022-11-21T09:54:48;98627.67;;;11.36;39.32
74881;BME280;63427;49.654;6.596;2022-11-21T09:57:10;98619.09;;;11.07;39.86
74881;BME280;63427;49.654;6.596;2022-11-21T09:59:36;98617.97;;;11.47;39.83
74881;BME280;63427;49.654;6.596;2022-11-21T10:02:00;98615.21;;;11.37;39.76
74881;BME280;63427;49.654;6.596;2022-11-21T10:04:26;98603.01;;;10.96;40.10
74881;BME280;63427;49.654;6.596;2022-11-21T10:06:59;98601.36;;;10.87;41.19
74881;BME280;63427;49.654;6.596;2022-11-21T10:09:24;98595.36;;;11.74;40.44
74881;BME280;63427;49.654;6.596;2022-11-21T10:11:50;98586.65;;;11.45;39.32
74881;BME280;63427;49.654;6.596;2022-11-21T10:14:15;98579.97;;;11.59;40.06
74881;BME280;63427;49.654;6.596;2022-11-21T10:16:40;98576.33;;;12.18;38.66
74881;BME280;63427;49.654;6.596;2022-11-21T10:19:13;98572.39;;;12.05;38.42
74881;BME280;63427;49.654;6.596;2022-11-21T10:21:33;98569.69;;;12.45;38.95
74881;BME280;63427;49.654;6.596;2022-11-21T10:24:02;98568.12;;;11.80;38.62
74881;BME280;63427;49.654;6.596;2022-11-21T10:26:21;98561.46;;;11.44;39.36
74881;BME280;63427;49.654;6.596;2022-11-21T10:28:46;98559.75;;;11.59;39.01
74881;BME280;63427;49.654;6.596;2022-11-21T10:31:08;98557.43;;;11.63;39.02
74881;BME280;63427;49.654;6.596;2022-11-21T10:33:33;98553.90;;;11.97;38.62
74881;BME280;63427;49.654;6.596;2022-11-21T10:36:01;98550.06;;;11.78;38.19
74881;BME280;63427;49.654;6.596;2022-11-21T10:38:25;98544.84;;;11.35;39.13
74881;BME280;63427;49.654;6.596;2022-11-21T10:40:51;98545.65;;;11.85;38.62
74881;BME280;63427;49.654;6.596;2022-11-21T10:43:24;98542.01;;;11.24;38.65
74881;BME280;63427;49.654;6.596;2022-11-21T10:45:40;98538.92;;;12.01;38.44
74881;BME280;63427;49.654;6.596;2022-11-21T10:48:07;98535.05;;;12.00;38.18
74881;BME280;63427;49.654;6.596;2022-11-21T10:50:40;98528.08;;;12.25;37.42
74881;BME280;63427;49.654;6.596;2022-11-21T10:53:03;98520.38;;;12.68;37.74
74881;BME280;63427;49.654;6.596;2022-11-21T10:55:22;98517.87;;;12.90;36.71
74881;BME280;63427;49.654;6.596;2022-11-21T10:57:49;98514.54;;;12.51;36.52
74881;BME280;63427;49.654;6.596;2022-11-21T11:00:17;98510.12;;;12.32;36.63
74881;BME280;63427;49.654;6.596;2022-11-21T11:02:39;98500.85;;;12.64;36.69
74881;BME280;63427;49.654;6.596;2022-11-21T11:05:16;98493.34;;;12.72;37.36
74881;BME280;63427;49.654;6.596;2022-11-21T11:07:29;98488.24;;;13.05;37.12
74881;BME280;63427;49.654;6.596;2022-11-21T11:12:25;98479.75;;;13.10;36.59
74881;BME280;63427;49.654;6.596;2022-11-21T11:14:49;98476.13;;;12.83;36.41
74881;BME280;63427;49.654;6.596;2022-11-21T11:17:13;98470.84;;;13.15;35.48
74881;BME280;63427;49.654;6.596;2022-11-21T11:19:36;98465.98;;;13.25;35.50
74881;BME280;63427;49.654;6.596;2022-11-21T11:22:02;98456.62;;;13.42;35.10
74881;BME280;63427;49.654;6.596;2022-11-21T11:24:27;98447.46;;;13.20;35.25
74881;BME280;63427;49.654;6.596;2022-11-21T11:26:58;98445.56;;;13.17;35.20
74881;BME280;63427;49.654;6.596;2022-11-21T11:29:19;98435.27;;;12.80;35.29
74881;BME280;63427;49.654;6.596;2022-11-21T11:31:51;98431.07;;;12.37;36.45
74881;BME280;63427;49.654;6.596;2022-11-21T11:34:11;98431.22;;;12.26;36.31
74881;BME280;63427;49.654;6.596;2022-11-21T11:36:37;98425.92;;;12.95;35.87
74881;BME280;63427;49.654;6.596;2022-11-21T11:39:09;98413.97;;;12.83;36.21
74881;BME280;63427;49.654;6.596;2022-11-21T11:41:44;98414.45;;;12.94;36.05
74881;BME280;63427;49.654;6.596;2022-11-21T11:43:58;98411.99;;;13.06;36.02
74881;BME280;63427;49.654;6.596;2022-11-21T11:46:27;98404.97;;;13.10;36.14
74881;BME280;63427;49.654;6.596;2022-11-21T11:48:43;98391.52;;;13.14;35.57
74881;BME280;63427;49.654;6.596;2022-11-21T11:51:15;98377.05;;;12.97;35.66
74881;BME280;63427;49.654;6.596;2022-11-21T11:53:37;98369.74;;;13.26;35.78
74881;BME280;63427;49.654;6.596;2022-11-21T11:56:02;98362.79;;;13.45;35.32
74881;BME280;63427;49.654;6.596;2022-11-21T11:58:28;98352.64;;;13.45;35.26
74881;BME280;63427;49.654;6.596;2022-11-21T12:00:57;98346.23;;;13.61;35.68
74881;BME280;63427;49.654;6.596;2022-11-21T12:03:25;98339.86;;;13.41;35.04
74881;BME280;63427;49.654;6.596;2022-11-21T12:08:13;98332.04;;;13.95;35.23
74881;BME280;63427;49.654;6.596;2022-11-21T12:10:38;98327.72;;;13.59;35.93
74881;BME280;63427;49.654;6.596;2022-11-21T12:13:04;98319.82;;;13.90;35.40
74881;BME280;63427;49.654;6.596;2022-11-21T12:15:26;98321.55;;;13.97;34.63
74881;BME280;63427;49.654;6.596;2022-11-21T12:17:53;98314.52;;;14.44;35.02
74881;BME280;63427;49.654;6.596;2022-11-21T12:20:19;98311.19;;;14.04;34.77
74881;BME280;63427;49.654;6.596;2022-11-21T12:22:39;98305.09;;;14.00;34.44
74881;BME280;63427;49.654;6.596;2022-11-21T12:25:10;98297.71;;;13.75;35.15
74881;BME280;63427;49.654;6.596;2022-11-21T12:27:31;98293.30;;;13.44;35.19
74881;BME280;63427;49.654;6.596;2022-11-21T12:30:13;98294.28;;;12.70;35.92
74881;BME280;63427;49.654;6.596;2022-11-21T12:32:32;98290.01;;;14.26;35.67
74881;BME280;63427;49.654;6.596;2022-11-21T12:35:04;98289.40;;;14.15;34.31
74881;BME280;63427;49.654;6.596;2022-11-21T12:37:20;98289.34;;;13.98;34.84
74881;BME280;63427;49.654;6.596;2022-11-21T12:39:55;98290.50;;;13.26;35.56
74881;BME280;63427;49.654;6.596;2022-11-21T12:42:08;98288.68;;;13.70;35.73
74881;BME280;63427;49.654;6.596;2022-11-21T12:44:41;98282.99;;;13.65;35.13
74881;BME280;63427;49.654;6.596;2022-11-21T12:47:02;98279.35;;;13.69;35.14
74881;BME280;63427;49.654;6.596;2022-11-21T12:49:29;98263.90;;;14.14;35.16
74881;BME280;63427;49.654;6.596;2022-11-21T12:51:55;98255.86;;;13.95;35.05
74881;BME280;63427;49.654;6.596;2022-11-21T12:54:22;98252.61;;;14.42;34.28
74881;BME280;63427;49.654;6.596;2022-11-21T12:56:40;98246.79;;;12.73;35.74
74881;BME280;63427;49.654;6.596;2022-11-21T12:59:02;98239.41;;;14.40;35.10
74881;BME280;63427;49.654;6.596;2022-11-21T13:01:33;98234.76;;;14.04;34.89